Terminal Aerodrome Forecast
Issued by NWS Shreveport, LA

Home | Current Version | Previous Version | Text Only | Print | Product List | Glossary On
Versions: 1 2 3 4 5 6 7 8 9 10 11 12 13 14 15 16 17 18
334
FTUS44 KSHV 251140
TAFGGG
TAF
KGGG 251140Z 2512/2612 17007KT P6SM OVC018
     FM251500 18012G18KT P6SM BKN025 BKN250
     FM251800 18012G18KT P6SM BKN040
     FM260000 17008KT P6SM FEW030 BKN250
     FM260800 17008KT P6SM BKN015=

USA.gov is the U.S. government's official web portal to all federal, state and local government web resources and services.